Time;durP1;ratioP1;P1;durP2;ratioP2;P2;SDS_P1;SDS_P2;PMS_P1;PMS_P2;Temp;Humidity;BMP_temperature;BMP_pressure;BME280_temperature;BME280_humidity;BME280_pressure;Samples;Min_cycle;Max_cycle;Signal;HPM_P1;HPM_P2
2021/07/05 00:00:00;;;;;;;4.57;1.90;;;12.70;99.90;;;14.07;75.32;94060.13;5024413;28;20408;-70
2021/07/05 00:02:26;;;;;;;2.90;1.80;;;12.80;99.90;;;14.06;75.03;94049.75;5022395;28;20203;-72
2021/07/05 00:04:52;;;;;;;5.53;1.90;;;12.80;99.90;;;14.11;75.09;94047.03;5023476;28;20303;-71
2021/07/05 00:07:20;;;;;;;3.90;2.00;;;12.90;99.90;;;14.11;75.02;94041.69;5010337;28;20257;-71
2021/07/05 00:09:48;;;;;;;1.80;1.70;;;12.90;99.90;;;14.12;74.92;94045.97;5004844;28;20330;-70
2021/07/05 00:12:17;;;;;;;2.03;1.60;;;12.90;99.90;;;14.19;75.33;94055.22;5018044;28;20194;-71
2021/07/05 00:14:43;;;;;;;2.60;1.50;;;12.90;99.90;;;14.27;75.32;94067.91;5018921;28;20602;-70
2021/07/05 00:17:09;;;;;;;2.50;1.33;;;13.00;99.90;;;14.32;75.18;94064.41;5019043;28;20214;-72
2021/07/05 00:19:35;;;;;;;4.07;1.90;;;13.10;99.90;;;14.29;75.70;94054.31;5000125;28;20563;-71
2021/07/05 00:22:01;;;;;;;1.50;1.23;;;13.10;99.90;;;14.29;75.07;94054.31;5023262;28;20638;-71
2021/07/05 00:24:27;;;;;;;1.57;1.27;;;13.20;99.90;;;14.20;75.62;94046.13;5024130;28;20603;-70
2021/07/05 00:26:53;;;;;;;1.63;1.40;;;13.10;99.90;;;14.23;75.72;94050.13;5005334;28;20302;-71
2021/07/05 00:29:19;;;;;;;2.63;1.53;;;13.10;99.90;;;14.27;75.44;94054.59;5016173;28;20249;-70
2021/07/05 00:31:45;;;;;;;2.93;1.40;;;13.10;99.90;;;14.29;75.74;94062.31;5022548;28;20810;-71
2021/07/05 00:34:11;;;;;;;2.23;1.30;;;13.10;99.90;;;14.41;75.86;94064.59;5016748;28;20192;-71
2021/07/05 00:36:37;;;;;;;3.60;1.30;;;13.20;99.90;;;14.30;75.62;94046.00;5018989;28;20271;-70
2021/07/05 00:39:04;;;;;;;1.40;1.30;;;13.20;99.90;;;14.29;75.59;94043.66;5018548;28;20227;-70
2021/07/05 00:41:30;;;;;;;2.00;1.43;;;13.20;99.90;;;14.36;75.59;94044.13;5026586;28;20754;-71
2021/07/05 00:43:57;;;;;;;4.33;1.50;;;13.20;99.90;;;14.43;75.80;94051.78;5020806;28;20246;-71
2021/07/05 00:46:26;;;;;;;3.67;1.40;;;13.30;99.90;;;14.44;75.97;94051.50;5026800;28;20215;-71
2021/07/05 00:48:55;;;;;;;3.83;1.63;;;13.30;99.90;;;14.45;75.91;94047.75;5021863;28;20180;-71
2021/07/05 00:51:23;;;;;;;3.93;1.50;;;13.30;99.90;;;14.53;75.96;94051.69;5013002;28;20704;-71
2021/07/05 00:53:54;;;;;;;4.23;1.33;;;13.40;99.90;;;14.60;75.67;94052.94;5029700;28;20192;-71
2021/07/05 00:56:21;;;;;;;2.40;1.60;;;13.50;99.90;;;14.57;75.80;94052.72;5026247;28;20624;-71
2021/07/05 00:58:47;;;;;;;2.53;1.17;;;13.50;99.90;;;14.54;76.20;94039.94;5013735;28;20214;-71
2021/07/05 01:01:13;;;;;;;2.97;1.50;;;13.40;99.90;;;14.61;76.01;94053.69;5041583;28;20201;-71
2021/07/05 01:03:41;;;;;;;4.97;1.50;;;13.50;99.90;;;14.65;76.07;94052.06;5053460;28;20692;-70
2021/07/05 01:06:07;;;;;;;1.30;1.20;;;13.50;99.90;;;14.63;76.17;94044.34;5030991;28;20212;-70
2021/07/05 01:08:35;;;;;;;3.70;1.13;;;13.60;99.90;;;14.63;76.24;94036.34;5007038;28;20253;-71
2021/07/05 01:11:04;;;;;;;3.07;1.33;;;13.70;99.90;;;14.72;76.22;94034.63;5019420;28;20200;-71
2021/07/05 01:13:30;;;;;;;2.43;1.13;;;13.60;99.90;;;14.62;76.21;94039.28;5011253;28;20588;-71
2021/07/05 01:15:56;;;;;;;3.90;1.30;;;13.60;99.90;;;14.55;76.26;94036.16;5027861;28;20247;-71
2021/07/05 01:18:22;;;;;;;1.43;1.30;;;13.50;99.90;;;14.63;76.38;94036.34;5023145;28;20209;-71
2021/07/05 01:20:48;;;;;;;3.23;1.30;;;13.60;99.90;;;14.49;76.52;94031.97;5018114;28;20274;-71
2021/07/05 01:23:14;;;;;;;2.77;1.13;;;13.50;99.90;;;14.36;76.52;94023.59;5024168;28;20664;-70
2021/07/05 01:25:43;;;;;;;2.17;1.10;;;13.40;99.90;;;14.27;76.29;94029.78;5021280;28;20673;-71
2021/07/05 01:28:11;;;;;;;6.43;1.50;;;13.30;99.90;;;14.26;76.23;94036.22;5009780;28;20194;-71
2021/07/05 01:30:40;;;;;;;2.90;1.30;;;13.20;99.90;;;14.24;76.53;94049.03;5022351;28;20201;-71
2021/07/05 01:33:08;;;;;;;1.13;1.03;;;13.20;99.90;;;14.12;76.35;94048.63;5022649;28;20195;-71
2021/07/05 01:35:35;;;;;;;1.30;1.07;;;13.10;99.90;;;14.11;76.28;94061.16;5006662;28;20326;-71
2021/07/05 01:38:02;;;;;;;2.93;1.40;;;13.10;99.90;;;13.99;76.63;94049.28;5011185;28;20238;-71
2021/07/05 01:40:29;;;;;;;2.93;1.10;;;12.90;99.90;;;13.97;76.41;94051.47;5026853;28;20225;-71
2021/07/05 01:42:58;;;;;;;1.23;1.13;;;12.90;99.90;;;13.90;76.68;94043.00;4998417;28;20519;-71
2021/07/05 01:45:29;;;;;;;2.30;1.53;;;12.80;99.90;;;13.84;76.83;94043.03;5026125;28;20256;-72
2021/07/05 01:47:56;;;;;;;2.53;1.50;;;12.80;99.90;;;13.76;76.77;94033.00;5045904;28;20299;-70
2021/07/05 01:50:23;;;;;;;3.00;1.43;;;12.70;99.90;;;13.76;76.39;94032.19;5010890;28;20199;-71
2021/07/05 01:52:54;;;;;;;2.67;1.40;;;12.60;99.90;;;13.79;76.55;94039.63;5021920;28;20289;-71
2021/07/05 01:55:33;;;;;;;4.10;1.47;;;12.60;99.90;;;13.69;77.12;94039.72;5027179;28;20197;-71
2021/07/05 01:58:02;;;;;;;1.60;1.50;;;12.60;99.90;;;13.64;76.27;94021.91;5027664;28;20254;-71
2021/07/05 02:00:29;;;;;;;5.57;1.67;;;12.50;99.90;;;13.64;76.65;94026.44;5015684;28;20188;-71
2021/07/05 02:02:55;;;;;;;3.37;1.87;;;12.50;99.90;;;13.62;76.57;94020.59;5026104;28;20203;-70
2021/07/05 02:05:22;;;;;;;2.37;1.90;;;12.50;99.90;;;13.58;76.97;94032.88;5027375;28;20288;-70
2021/07/05 02:07:51;;;;;;;2.83;1.90;;;12.50;99.90;;;13.64;77.09;94032.56;5011139;28;20210;-70
2021/07/05 02:10:35;;;;;;;7.83;2.13;;;12.50;99.90;;;13.62;76.80;94024.06;5022722;28;20252;-71
2021/07/05 02:13:17;;;;;;;3.73;1.90;;;12.50;99.90;;;13.65;76.90;94031.50;5020337;28;20210;-70
2021/07/05 02:15:44;;;;;;;2.13;1.93;;;12.50;99.90;;;13.62;76.86;94025.94;5037925;28;20200;-71
2021/07/05 02:18:10;;;;;;;2.40;2.20;;;12.50;99.90;;;13.63;77.16;94019.53;5023625;28;20203;-71
2021/07/05 02:20:37;;;;;;;1.97;1.87;;;12.40;99.90;;;13.68;77.07;94017.59;5012479;28;20655;-71
2021/07/05 02:23:08;;;;;;;3.67;1.97;;;12.50;99.90;;;13.67;77.28;94016.00;5005935;28;20868;-71
2021/07/05 02:25:34;;;;;;;2.57;1.83;;;12.50;99.90;;;13.69;77.16;94019.22;5021314;28;20295;-71
2021/07/05 02:28:13;;;;;;;4.20;1.63;;;12.50;99.90;;;13.75;77.05;94018.09;5021598;28;20195;-70
2021/07/05 02:30:46;;;;;;;1.70;1.30;;;12.60;99.90;;;13.74;77.15;94011.16;5025214;28;20198;-69
2021/07/05 02:33:12;;;;;;;4.57;1.80;;;12.60;99.90;;;13.61;77.14;94006.47;5010652;28;20616;-70
2021/07/05 02:35:39;;;;;;;2.07;1.57;;;12.60;99.90;;;13.57;77.48;94009.97;5025077;28;20936;-70
2021/07/05 02:38:11;;;;;;;2.33;1.50;;;12.50;99.90;;;13.59;77.15;94016.63;5022647;28;20962;-71
2021/07/05 02:40:42;;;;;;;3.57;1.50;;;12.50;99.90;;;13.50;77.60;94017.53;5004667;28;20194;-71
2021/07/05 02:43:09;;;;;;;2.17;1.27;;;12.40;99.90;;;13.46;77.23;94019.16;5056109;28;20205;-72
2021/07/05 02:45:37;;;;;;;2.17;1.30;;;12.40;99.90;;;13.48;77.70;94023.13;5024316;28;20190;-70
2021/07/05 02:48:12;;;;;;;1.87;1.20;;;12.40;99.90;;;13.50;77.39;94034.25;5025049;28;20604;-71
2021/07/05 02:50:43;;;;;;;1.57;1.20;;;12.40;99.90;;;13.46;77.55;94024.47;5023709;28;20195;-70
2021/07/05 02:53:10;;;;;;;2.47;1.43;;;12.40;99.90;;;13.47;77.18;94026.03;5020482;28;20189;-71
2021/07/05 02:55:37;;;;;;;2.87;1.43;;;12.30;99.90;;;13.45;77.48;94021.00;5026362;28;20207;-71
2021/07/05 02:58:04;;;;;;;5.70;1.37;;;12.40;99.90;;;13.47;77.31;93999.41;5018754;28;20200;-73
2021/07/05 03:00:34;;;;;;;2.13;1.20;;;12.20;99.90;;;13.51;77.52;94011.09;5037332;28;20188;-71
2021/07/05 03:03:01;;;;;;;4.23;1.17;;;12.30;99.90;;;13.46;77.62;94001.31;5025352;28;20817;-71
2021/07/05 03:05:29;;;;;;;1.40;1.30;;;12.40;99.90;;;13.43;77.46;93993.09;5024733;28;20304;-70
2021/07/05 03:07:56;;;;;;;3.73;1.30;;;12.10;99.90;;;13.39;77.70;94003.50;5025605;28;20229;-71
2021/07/05 03:10:30;;;;;;;3.00;1.13;;;12.30;99.90;;;13.23;77.62;93997.47;5025284;28;20546;-71
2021/07/05 03:12:57;;;;;;;1.53;1.10;;;12.20;99.90;;;13.15;77.86;93998.09;5024404;28;20197;-71
2021/07/05 03:15:26;;;;;;;2.67;1.40;;;12.10;99.90;;;13.25;77.70;94007.84;5040021;28;20197;-70
2021/07/05 03:17:59;;;;;;;1.03;1.03;;;12.10;99.90;;;13.17;77.88;93987.94;5022927;28;20272;-71
2021/07/05 03:20:32;;;;;;;3.57;1.33;;;12.10;99.90;;;13.09;77.80;94004.53;5015180;28;20231;-70
2021/07/05 03:23:01;;;;;;;6.07;1.30;;;12.00;99.90;;;13.08;77.77;94012.75;5032365;28;20187;-70
2021/07/05 03:25:30;;;;;;;5.43;1.60;;;12.00;99.90;;;13.06;77.80;94009.56;5019227;28;20193;-71
2021/07/05 03:28:00;;;;;;;2.43;1.80;;;12.00;99.90;;;13.00;77.86;94005.34;5033383;28;20210;-70
2021/07/05 03:30:28;;;;;;;2.97;1.77;;;11.90;99.90;;;13.01;77.94;93997.09;5026972;28;20198;-71
2021/07/05 03:32:55;;;;;;;3.53;1.90;;;11.90;99.90;;;13.06;78.04;93998.94;5037433;28;20206;-70
2021/07/05 03:35:23;;;;;;;2.97;2.00;;;11.80;99.90;;;13.10;77.84;94003.44;5029171;28;20745;-70
2021/07/05 03:37:50;;;;;;;2.83;1.77;;;11.90;99.90;;;13.21;77.85;94002.28;5033297;28;20205;-71
2021/07/05 03:40:23;;;;;;;3.17;1.77;;;12.00;99.90;;;13.31;78.21;93988.09;5021962;28;20202;-71
2021/07/05 03:42:50;;;;;;;5.00;1.80;;;12.10;99.90;;;13.34;78.08;93985.69;5021679;28;20189;-71
2021/07/05 03:45:21;;;;;;;2.37;2.10;;;12.20;99.90;;;13.43;77.88;93985.88;5027243;28;20195;-71
2021/07/05 03:47:48;;;;;;;3.63;1.60;;;12.20;99.90;;;13.55;77.94;93996.16;5041034;28;20304;-71
2021/07/05 03:50:16;;;;;;;3.10;1.57;;;12.30;99.90;;;13.64;77.88;93997.13;5025227;28;20571;-70
2021/07/05 03:52:44;;;;;;;2.80;1.60;;;12.40;99.90;;;13.69;78.22;93994.44;5022839;28;20196;-71
2021/07/05 03:55:15;;;;;;;1.80;1.20;;;12.50;99.90;;;13.60;78.05;93982.78;5025432;28;20204;-70
2021/07/05 03:57:41;;;;;;;3.40;1.30;;;12.40;99.90;;;13.66;78.40;93987.81;5025382;28;20249;-71
2021/07/05 04:00:16;;;;;;;1.60;1.50;;;12.50;99.90;;;13.68;78.40;93985.66;5001892;28;20199;-70
2021/07/05 04:02:42;;;;;;;1.57;1.43;;;12.50;99.90;;;13.74;78.37;93978.41;5007678;28;20203;-70
2021/07/05 04:05:10;;;;;;;4.87;1.43;;;12.50;99.90;;;13.87;78.55;93989.19;5004234;28;20208;-70
2021/07/05 04:07:36;;;;;;;1.63;1.27;;;12.70;99.90;;;13.96;78.41;93989.38;5005287;28;20669;-70
2021/07/05 04:10:08;;;;;;;2.27;1.47;;;12.80;99.90;;;14.22;78.18;93997.88;5015031;28;20205;-71
2021/07/05 04:12:34;;;;;;;1.80;1.10;;;13.00;99.90;;;14.36;78.46;93986.28;5020834;28;20705;-71
2021/07/05 04:15:01;;;;;;;2.93;1.40;;;13.20;99.90;;;14.46;78.53;93987.22;5022101;28;20259;-70
2021/07/05 04:17:30;;;;;;;2.40;1.40;;;13.30;99.90;;;14.43;78.39;93979.78;5017298;28;20205;-70
2021/07/05 04:19:58;;;;;;;2.77;1.67;;;13.30;99.90;;;14.60;78.44;93990.78;5022470;28;20193;-70
2021/07/05 04:22:24;;;;;;;2.80;1.70;;;13.40;99.90;;;14.79;78.39;93981.72;5021906;28;20700;-70
2021/07/05 04:24:50;;;;;;;4.90;1.70;;;13.60;99.90;;;14.86;78.44;93966.13;5025029;28;20194;-71
2021/07/05 04:27:19;;;;;;;1.60;1.50;;;13.70;99.90;;;14.96;78.54;93978.53;5017764;28;20225;-70
2021/07/05 04:29:47;;;;;;;2.07;1.80;;;13.80;99.90;;;15.11;78.31;93986.31;5022199;28;20217;-71
2021/07/05 04:32:14;;;;;;;4.17;1.60;;;13.90;99.90;;;15.24;78.43;93974.88;5024091;28;20205;-71
2021/07/05 04:34:40;;;;;;;5.23;1.60;;;14.10;99.90;;;15.33;78.61;93981.16;5023313;28;20207;-70
2021/07/05 04:37:09;;;;;;;2.67;1.40;;;14.30;99.90;;;15.42;78.62;93978.59;5021925;28;20293;-71
2021/07/05 04:39:36;;;;;;;5.07;1.50;;;14.40;99.90;;;15.59;78.36;93970.06;5018360;28;20277;-70
2021/07/05 04:42:03;;;;;;;3.97;1.53;;;14.50;99.90;;;15.61;78.46;93967.94;5017717;28;20685;-70
2021/07/05 04:44:32;;;;;;;4.33;1.60;;;14.60;99.90;;;15.61;78.28;93975.94;5053606;28;20217;-70
2021/07/05 04:46:58;;;;;;;4.40;1.30;;;14.40;99.90;;;15.57;78.70;93972.25;5022538;28;20277;-71
2021/07/05 04:49:27;;;;;;;2.97;1.13;;;14.60;99.90;;;15.58;78.53;93963.94;5025278;28;20189;-70
2021/07/05 04:51:54;;;;;;;2.60;1.10;;;14.70;99.90;;;15.73;78.36;93968.25;5002186;28;20223;-70
2021/07/05 04:54:20;;;;;;;2.10;1.30;;;14.70;99.90;;;15.85;78.37;93957.84;5018994;28;20252;-71
2021/07/05 04:56:48;;;;;;;2.10;1.00;;;14.80;99.90;;;15.87;78.36;93953.81;5023559;28;20219;-70
2021/07/05 04:59:14;;;;;;;1.60;0.90;;;14.90;99.90;;;16.10;78.55;93943.22;5025180;28;20242;-71
2021/07/05 05:01:46;;;;;;;1.00;0.80;;;15.10;99.90;;;16.29;78.39;93957.28;5020403;28;20230;-69
2021/07/05 05:04:12;;;;;;;5.97;1.30;;;15.20;99.90;;;16.24;78.18;93960.88;5056262;28;20246;-70
2021/07/05 05:06:38;;;;;;;1.73;1.00;;;15.30;99.90;;;16.42;78.42;93961.81;5024331;28;20720;-70
2021/07/05 05:09:06;;;;;;;2.20;0.90;;;15.40;99.90;;;16.46;78.43;93962.03;5022936;28;20217;-70
2021/07/05 05:11:32;;;;;;;4.67;0.80;;;15.50;99.90;;;16.58;78.26;93960.47;5023245;28;21541;-71
2021/07/05 05:14:02;;;;;;;2.43;0.73;;;15.60;99.90;;;16.70;78.13;93960.72;5002416;28;20212;-71
2021/07/05 05:16:31;;;;;;;1.50;0.90;;;15.70;99.90;;;16.70;78.26;93951.91;5018199;28;20228;-71
2021/07/05 05:19:01;;;;;;;1.60;0.80;;;15.80;99.90;;;16.74;78.46;93959.03;5022660;28;20219;-71
2021/07/05 05:21:28;;;;;;;1.60;0.70;;;15.90;99.90;;;16.80;78.01;93967.75;5020828;28;20228;-72
2021/07/05 05:23:54;;;;;;;2.57;0.93;;;15.90;99.90;;;16.78;78.08;93952.00;5025694;28;20733;-75
2021/07/05 05:26:20;;;;;;;4.43;1.00;;;16.00;99.90;;;16.80;77.92;93967.75;5007483;28;20244;-74
2021/07/05 05:28:49;;;;;;;1.67;0.73;;;16.00;99.90;;;16.86;78.10;93977.25;5021538;28;20196;-74
2021/07/05 05:31:15;;;;;;;2.90;1.30;;;16.00;99.90;;;16.93;77.92;93977.63;5008349;28;20224;-72
2021/07/05 05:33:42;;;;;;;1.40;1.00;;;16.10;99.90;;;16.94;78.04;93955.13;5048319;28;20203;-71
2021/07/05 05:36:08;;;;;;;1.37;0.70;;;16.10;99.90;;;16.81;77.92;93959.44;5049624;28;20224;-71
2021/07/05 05:38:35;;;;;;;1.93;0.80;;;16.00;99.90;;;16.89;77.86;93964.06;5010741;28;20224;-71
2021/07/05 05:41:01;;;;;;;1.00;0.90;;;16.10;99.90;;;16.98;77.94;93937.38;5039693;28;20207;-71
2021/07/05 05:43:30;;;;;;;0.60;0.60;;;16.10;99.90;;;17.03;77.64;93952.50;5034452;28;20192;-71
2021/07/05 05:46:01;;;;;;;1.43;0.90;;;16.10;99.90;;;17.11;77.78;93941.88;5029479;28;20209;-70
2021/07/05 05:48:30;;;;;;;0.80;0.80;;;16.20;99.90;;;17.34;77.63;93962.22;5025696;28;20660;-71
2021/07/05 05:50:57;;;;;;;0.90;0.90;;;16.30;99.90;;;17.51;77.82;93958.06;5011544;28;20192;-71
2021/07/05 05:53:26;;;;;;;0.90;0.73;;;16.50;99.90;;;17.69;77.67;93963.28;5014650;28;20277;-71
2021/07/05 05:55:54;;;;;;;1.23;1.07;;;16.70;99.90;;;17.93;77.98;93971.75;4993688;28;20193;-71
2021/07/05 05:58:23;;;;;;;1.87;0.87;;;17.00;99.90;;;18.07;77.58;93970.84;5019134;28;20198;-71
2021/07/05 06:00:49;;;;;;;0.93;0.80;;;17.20;99.90;;;18.18;77.63;93958.75;5022147;28;20200;-71
2021/07/05 06:03:17;;;;;;;1.53;0.87;;;17.30;99.90;;;18.13;77.58;93950.88;5026209;28;20658;-71
2021/07/05 06:05:45;;;;;;;1.43;0.80;;;17.40;99.90;;;18.16;77.49;93971.72;5023491;28;20209;-71
2021/07/05 06:08:16;;;;;;;1.00;0.90;;;17.40;99.90;;;18.34;77.24;93973.34;5021609;28;20671;-71
2021/07/05 06:10:42;;;;;;;0.87;0.77;;;17.50;99.90;;;18.41;77.37;93982.53;4998288;28;20230;-72
2021/07/05 06:13:08;;;;;;;4.63;0.90;;;18.50;99.90;;;18.47;77.40;93975.13;5009124;28;20196;-72
2021/07/05 06:15:34;;;;;;;0.93;0.70;;;17.70;99.90;;;18.42;77.29;93980.63;5014556;28;20295;-72
2021/07/05 06:18:01;;;;;;;1.10;0.80;;;17.70;99.90;;;18.41;77.17;93968.31;5023234;28;20190;-72
2021/07/05 06:20:31;;;;;;;1.67;0.60;;;17.70;99.90;;;18.66;76.81;93972.22;5030571;28;20282;-72
2021/07/05 06:22:57;;;;;;;0.70;0.70;;;17.90;99.90;;;18.87;76.94;93978.56;5029082;28;20296;-72
2021/07/05 06:25:27;;;;;;;2.20;0.80;;;18.10;99.90;;;18.80;76.93;93970.97;4993128;28;20288;-71
2021/07/05 06:27:54;;;;;;;2.77;0.90;;;18.10;99.90;;;18.86;76.83;93983.16;5023280;28;20328;-72
2021/07/05 06:30:20;;;;;;;1.00;0.90;;;18.20;99.90;;;18.89;76.76;93977.16;5038284;28;20197;-72
2021/07/05 06:32:46;;;;;;;1.93;0.97;;;18.20;99.90;;;18.90;76.75;93975.25;5024019;28;20208;-72
2021/07/05 06:35:13;;;;;;;3.23;1.27;;;18.20;99.90;;;18.89;76.74;93984.41;5026829;28;20218;-72
2021/07/05 06:37:40;;;;;;;2.23;1.07;;;17.80;99.90;;;18.70;76.38;93981.22;5023520;28;20203;-73
2021/07/05 06:40:08;;;;;;;2.10;1.00;;;18.10;99.90;;;18.77;76.56;93985.00;4997093;28;20237;-72
2021/07/05 06:42:37;;;;;;;2.00;0.90;;;18.10;99.90;;;18.74;76.68;93974.09;5021496;28;20195;-72
2021/07/05 06:45:06;;;;;;;1.70;0.80;;;18.00;99.90;;;18.72;76.42;93979.00;5017339;28;20583;-72
2021/07/05 06:47:34;;;;;;;1.10;1.00;;;18.00;99.90;;;18.79;76.28;93987.41;5018934;28;20224;-71
2021/07/05 06:50:00;;;;;;;1.23;0.90;;;18.00;99.90;;;18.78;76.38;93981.22;5024673;28;20552;-72
2021/07/05 06:52:28;;;;;;;2.00;0.70;;;18.00;99.90;;;19.00;76.23;93974.16;5027593;28;20229;-72
2021/07/05 06:54:53;;;;;;;1.67;0.80;;;18.20;99.90;;;19.08;75.90;93976.06;5033536;28;20521;-71
2021/07/05 06:57:34;;;;;;;2.67;0.80;;;18.20;99.90;;;19.28;76.06;93976.22;5042945;28;20204;-73
2021/07/05 07:00:09;;;;;;;0.80;0.70;;;18.30;99.90;;;19.59;76.03;93986.03;5025977;28;20298;-72
2021/07/05 07:02:38;;;;;;;2.50;0.63;;;18.60;99.90;;;19.82;75.75;93985.53;5019170;28;20648;-71
2021/07/05 07:05:10;;;;;;;3.17;0.73;;;18.90;99.90;;;19.93;75.75;93972.53;5009860;28;20194;-71
2021/07/05 07:07:44;;;;;;;2.60;0.77;;;19.10;99.90;;;19.87;75.67;93973.81;5026933;28;20204;-71
2021/07/05 07:10:17;;;;;;;0.73;0.73;;;19.10;99.90;;;20.02;75.55;93984.06;5006540;28;20211;-72
2021/07/05 07:12:48;;;;;;;1.13;0.70;;;19.30;99.90;;;20.36;75.40;93999.34;5032450;28;20657;-72
2021/07/05 07:15:21;;;;;;;1.73;0.70;;;19.60;99.90;;;20.56;75.37;93989.75;5023506;28;20819;-72
2021/07/05 07:17:51;;;;;;;1.60;0.70;;;19.70;99.90;;;20.52;75.12;93981.53;5006711;28;20215;-72
2021/07/05 07:20:20;;;;;;;1.83;0.70;;;19.80;99.90;;;20.57;75.05;93985.94;5038277;28;20203;-72
2021/07/05 07:22:48;;;;;;;2.27;0.80;;;19.80;99.90;;;20.57;75.13;93973.28;5054070;28;20290;-73
2021/07/05 07:25:15;;;;;;;1.00;0.77;;;19.90;99.90;;;20.61;74.82;93973.41;5026438;28;20290;-72
2021/07/05 07:27:42;;;;;;;0.90;0.70;;;20.00;99.90;;;20.93;74.85;93986.22;5018147;28;20218;-71
2021/07/05 07:30:11;;;;;;;2.53;0.73;;;20.20;99.90;;;21.36;74.60;93994.84;5027160;28;20196;-73
2021/07/05 07:32:38;;;;;;;1.23;0.80;;;20.70;99.90;;;21.53;74.43;93966.13;5008517;28;20203;-73
2021/07/05 07:35:07;;;;;;;2.50;0.80;;;20.90;99.90;;;21.48;74.36;93959.84;5030894;28;20244;-73
2021/07/05 07:37:35;;;;;;;1.53;0.70;;;21.00;99.90;;;21.53;74.17;93979.63;5034410;28;20931;-72
2021/07/05 07:40:10;;;;;;;1.13;0.67;;;21.00;99.90;;;21.74;74.08;93970.38;5013165;28;20574;-72
2021/07/05 07:42:36;;;;;;;1.90;0.73;;;21.00;99.90;;;21.64;73.72;93975.41;5009456;28;20285;-73
2021/07/05 07:45:03;;;;;;;0.87;0.60;;;21.00;99.90;;;21.58;73.77;93985.63;5022522;28;20735;-71
2021/07/05 07:47:32;;;;;;;0.80;0.53;;;20.90;99.90;;;21.59;73.70;94000.66;5007516;28;20223;-71
2021/07/05 07:49:58;;;;;;;3.87;0.83;;;20.90;99.90;;;21.68;73.59;93979.03;5016561;28;20224;-71
2021/07/05 07:52:28;;;;;;;1.67;0.60;;;21.00;99.90;;;21.62;73.17;93985.75;5022784;28;20185;-72
2021/07/05 07:54:54;;;;;;;0.90;0.70;;;21.00;99.90;;;21.48;73.35;93996.81;5024430;28;20192;-71
2021/07/05 07:57:20;;;;;;;0.70;0.70;;;21.00;99.90;;;21.35;73.11;93985.16;5022551;28;20736;-72
2021/07/05 07:59:47;;;;;;;1.10;0.80;;;20.90;99.90;;;21.45;72.87;93987.44;5022918;28;20237;-71
2021/07/05 08:02:13;;;;;;;3.03;0.90;;;20.90;99.90;;;21.17;72.76;93996.41;5022992;28;20200;-71
2021/07/05 08:04:39;;;;;;;0.60;0.60;;;20.60;99.90;;;21.08;72.90;93966.00;5011758;28;20724;-72
2021/07/05 08:07:06;;;;;;;3.83;0.73;;;20.50;99.90;;;20.95;72.92;93994.78;5018576;28;20209;-71
2021/07/05 08:09:36;;;;;;;3.90;0.97;;;20.40;99.90;;;20.98;72.38;93984.13;5022003;28;20648;-72
2021/07/05 08:12:05;;;;;;;1.17;0.83;;;20.40;99.90;;;21.38;72.37;93992.63;5017594;28;20190;-73
2021/07/05 08:14:32;;;;;;;1.60;0.60;;;20.60;99.90;;;21.40;72.34;93995.75;5019527;28;20194;-71
2021/07/05 08:16:58;;;;;;;0.63;0.63;;;20.70;99.90;;;21.52;72.11;93964.56;5005417;28;20752;-72
2021/07/05 08:19:24;;;;;;;0.73;0.73;;;20.80;99.90;;;21.38;72.30;93978.34;5041550;28;20204;-72
2021/07/05 08:21:52;;;;;;;2.33;0.60;;;20.70;99.90;;;21.37;71.87;93992.94;5020356;28;20196;-72
2021/07/05 08:24:20;;;;;;;0.80;0.60;;;20.80;99.90;;;21.36;71.77;93999.44;5021468;28;20198;-71
2021/07/05 08:26:49;;;;;;;0.93;0.60;;;20.80;99.90;;;21.40;72.00;93982.28;5016471;28;20332;-71
2021/07/05 08:29:15;;;;;;;1.43;0.80;;;20.70;99.90;;;21.23;71.55;93970.81;5048237;28;20285;-71
2021/07/05 08:31:41;;;;;;;0.60;0.60;;;20.70;99.90;;;21.26;71.78;93989.03;5047523;28;20703;-72
2021/07/05 08:34:07;;;;;;;2.17;0.70;;;20.70;99.90;;;21.36;71.43;93999.44;5007224;28;20313;-72
2021/07/05 08:36:35;;;;;;;1.63;0.80;;;20.70;99.90;;;21.75;71.53;93998.97;5032666;28;20226;-73
2021/07/05 08:39:01;;;;;;;1.67;0.93;;;21.00;99.90;;;22.08;71.38;93992.78;5025288;28;21845;-72
2021/07/05 08:41:27;;;;;;;0.83;0.73;;;21.30;99.90;;;22.33;70.97;93983.59;5024028;28;20207;-72
2021/07/05 08:43:56;;;;;;;0.93;0.83;;;21.50;99.90;;;22.46;70.83;93975.19;5034873;28;20903;-73
2021/07/05 08:46:24;;;;;;;1.30;0.70;;;21.70;99.90;;;22.66;71.12;93997.06;5023429;28;20270;-72
2021/07/05 08:48:51;;;;;;;1.53;1.07;;;21.90;99.90;;;22.72;70.72;93974.09;5037636;28;20200;-72
2021/07/05 08:51:22;;;;;;;0.80;0.80;;;22.00;99.90;;;22.33;71.05;93978.19;5022659;28;20213;-72
2021/07/05 08:53:52;;;;;;;1.07;0.80;;;21.80;99.90;;;22.14;70.94;93980.66;5036673;28;20220;-72
2021/07/05 08:56:20;;;;;;;1.23;0.77;;;21.60;99.90;;;22.34;70.66;93996.00;5024917;28;20631;-72
2021/07/05 08:58:47;;;;;;;1.27;0.60;;;21.70;99.90;;;22.33;70.36;93984.38;5023268;28;20196;-72
2021/07/05 09:01:15;;;;;;;1.00;0.70;;;21.70;99.90;;;22.57;70.04;93955.81;5001237;28;20661;-71
2021/07/05 09:03:41;;;;;;;0.83;0.70;;;21.90;99.90;;;22.59;70.20;93967.09;5015998;28;20189;-72
2021/07/05 09:06:15;;;;;;;2.27;1.60;;;21.90;99.90;;;22.71;69.89;93977.94;5020542;28;20302;-72
2021/07/05 09:08:46;;;;;;;1.10;0.90;;;22.00;99.90;;;22.62;70.18;93964.50;5051852;28;20189;-72
2021/07/05 09:11:18;;;;;;;1.23;0.70;;;21.90;99.90;;;22.79;69.42;93990.53;5031774;28;20193;-71
2021/07/05 09:13:53;;;;;;;0.90;0.63;;;21.90;99.90;;;22.73;69.28;93957.53;5024641;28;20674;-72
2021/07/05 09:16:32;;;;;;;1.73;0.70;;;22.00;99.90;;;22.79;69.22;93987.84;5021642;28;20198;-72
2021/07/05 09:18:58;;;;;;;0.80;0.80;;;21.90;99.90;;;23.08;69.58;93963.25;5028211;28;20288;-71
2021/07/05 09:21:33;;;;;;;1.00;0.80;;;22.10;99.90;;;23.23;69.35;93954.44;5025442;28;20196;-71
2021/07/05 09:24:06;;;;;;;0.93;0.73;;;22.30;99.90;;;23.25;69.35;93987.34;5052256;28;20318;-71
2021/07/05 09:26:42;;;;;;;1.80;1.00;;;22.30;99.90;;;23.34;69.23;93993.41;5010488;28;20232;-71
2021/07/05 09:29:14;;;;;;;2.47;1.17;;;22.40;99.90;;;22.91;68.87;93942.66;5019743;28;20202;-72
2021/07/05 09:31:53;;;;;;;1.43;1.20;;;22.20;99.90;;;22.40;68.83;93968.41;5029703;28;20194;-72
2021/07/05 09:34:38;;;;;;;3.83;1.50;;;21.80;99.90;;;22.26;69.29;93965.25;5024420;28;20219;-72
2021/07/05 09:37:23;;;;;;;2.30;1.47;;;21.60;99.90;;;22.42;68.73;93995.13;5009722;28;20204;-72
2021/07/05 09:40:11;;;;;;;1.83;1.17;;;21.60;99.90;;;23.02;68.61;94005.19;5023084;28;20191;-72
2021/07/05 09:42:47;;;;;;;3.73;1.43;;;22.00;99.90;;;23.12;68.78;93991.19;5012306;28;20225;-71
2021/07/05 09:45:15;;;;;;;1.10;1.00;;;22.20;99.90;;;23.87;68.91;93999.59;5038109;28;20245;-71
2021/07/05 09:47:44;;;;;;;2.93;1.30;;;22.90;99.90;;;23.98;68.40;93966.25;5015865;28;20309;-71
2021/07/05 09:50:16;;;;;;;2.40;1.30;;;23.20;99.90;;;23.46;68.82;93954.75;5027089;28;20296;-71
2021/07/05 09:52:43;;;;;;;1.90;1.30;;;22.80;99.90;;;23.76;68.40;93974.13;5047732;28;20199;-71
2021/07/05 09:55:19;;;;;;;3.20;1.13;;;23.10;99.90;;;23.86;68.68;93962.81;5023380;28;20194;-71
2021/07/05 09:57:50;;;;;;;3.70;1.53;;;23.40;99.90;;;24.18;68.23;93988.84;4996704;28;20257;-72
2021/07/05 10:00:26;;;;;;;2.17;1.30;;;23.60;99.90;;;24.11;68.13;93991.31;5025782;28;20207;-72
2021/07/05 10:02:58;;;;;;;3.03;1.60;;;23.50;99.90;;;24.57;68.18;94006.13;5011872;28;20191;-71
2021/07/05 10:05:30;;;;;;;2.53;1.43;;;23.80;99.90;;;25.70;67.56;93987.03;5027552;28;20657;-72
2021/07/05 10:08:12;;;;;;;3.10;1.37;;;25.00;99.90;;;26.83;67.34;94045.50;5006111;28;20219;-72
2021/07/05 10:10:41;;;;;;;4.20;1.40;;;26.20;99.90;;;26.87;67.63;93934.81;5021191;28;20553;-72
2021/07/05 10:13:17;;;;;;;1.90;1.27;;;26.60;99.90;;;26.50;67.28;93968.00;5023289;28;20185;-72
2021/07/05 10:15:46;;;;;;;1.97;1.30;;;26.30;99.90;;;27.33;67.11;94030.78;5024553;28;20223;-72
2021/07/05 10:18:12;;;;;;;3.20;1.40;;;26.90;99.90;;;27.74;66.66;93986.22;5038529;28;20193;-72
2021/07/05 10:20:44;;;;;;;3.00;1.17;;;27.30;99.90;;;28.56;66.51;93949.75;5016532;28;20203;-72
2021/07/05 10:23:14;;;;;;;2.70;1.37;;;28.20;99.90;;;28.13;66.00;93999.59;5024924;28;20185;-72
2021/07/05 10:25:48;;;;;;;0.60;0.60;;;28.10;99.90;;;28.17;65.55;93992.22;5018987;28;20266;-72